createdAt,value
2018-12-31T00:01:46.868Z,6.00
2018-12-31T00:04:17.120Z,4.00
2018-12-31T00:06:47.985Z,4.40
2018-12-31T00:09:15.745Z,6.60
2018-12-31T00:11:43.543Z,7.00
2018-12-31T00:14:11.651Z,6.00
2018-12-31T00:16:42.521Z,11.20
2018-12-31T00:19:10.280Z,6.60
2018-12-31T00:21:38.400Z,11.80
2018-12-31T00:24:08.877Z,6.60
2018-12-31T00:26:36.637Z,9.00
2018-12-31T00:29:04.762Z,8.20
2018-12-31T00:31:34.416Z,10.00
2018-12-31T00:34:02.667Z,8.20
2018-12-31T00:36:30.498Z,13.20
2018-12-31T00:38:58.243Z,10.00
2018-12-31T00:41:26.120Z,9.00
2018-12-31T00:43:53.862Z,8.20
2018-12-31T00:46:21.657Z,9.20
2018-12-31T00:48:52.375Z,5.60
2018-12-31T00:51:20.497Z,6.20
2018-12-31T00:53:48.203Z,7.40
2018-12-31T00:56:16.362Z,7.80
2018-12-31T00:58:44.442Z,6.80
2018-12-31T01:01:12.220Z,5.80
2018-12-31T01:03:40.058Z,4.00
2018-12-31T01:06:08.098Z,3.20
2018-12-31T01:08:36.195Z,7.00
2018-12-31T01:11:04.040Z,9.80
2018-12-31T01:13:32.228Z,8.40
2018-12-31T01:16:00.023Z,8.80
2018-12-31T01:18:32.196Z,6.40
2018-12-31T01:21:02.260Z,7.40
2018-12-31T01:23:30.067Z,9.00
2018-12-31T01:25:57.808Z,8.40
2018-12-31T01:28:25.630Z,9.40
2018-12-31T01:30:53.573Z,11.20
2018-12-31T01:33:24.593Z,6.40
2018-12-31T01:35:52.387Z,6.60
2018-12-31T01:38:20.147Z,6.20
2018-12-31T01:40:47.946Z,11.00
2018-12-31T01:43:16.918Z,4.00
2018-12-31T01:45:44.740Z,7.40
2018-12-31T01:48:12.528Z,6.80
2018-12-31T01:50:41.702Z,3.80
2018-12-31T01:53:09.510Z,6.40
2018-12-31T01:55:40.069Z,6.00
2018-12-31T01:58:07.835Z,4.60
2018-12-31T02:00:35.626Z,6.80
2018-12-31T02:03:03.387Z,3.80
2018-12-31T02:05:32.807Z,5.60
2018-12-31T02:08:00.563Z,6.20
2018-12-31T02:10:28.382Z,7.00
2018-12-31T02:12:56.148Z,8.60
2018-12-31T02:15:23.956Z,8.60
2018-12-31T02:17:51.692Z,6.40
2018-12-31T02:20:19.532Z,6.40
2018-12-31T02:22:47.535Z,6.20
2018-12-31T02:25:15.392Z,12.00
2018-12-31T02:27:44.269Z,6.60
2018-12-31T02:30:12.011Z,6.00
2018-12-31T02:32:41.876Z,6.00
2018-12-31T02:35:09.661Z,7.20
2018-12-31T02:37:40.495Z,7.00
2018-12-31T02:40:08.258Z,9.20
2018-12-31T02:42:36.374Z,6.40
2018-12-31T02:45:04.122Z,5.60
2018-12-31T02:47:31.895Z,7.40
2018-12-31T02:49:59.689Z,8.20
2018-12-31T02:52:27.739Z,11.20
2018-12-31T02:55:01.522Z,12.40
2018-12-31T02:57:29.282Z,12.00
2018-12-31T02:59:59.013Z,10.80
2018-12-31T03:02:26.495Z,7.40
2018-12-31T03:04:54.364Z,7.00
2018-12-31T03:07:22.446Z,9.80
2018-12-31T03:09:53.238Z,9.60
2018-12-31T03:12:20.982Z,11.40
2018-12-31T03:14:49.095Z,12.80
2018-12-31T03:17:19.273Z,9.80
2018-12-31T03:19:47.043Z,8.20
2018-12-31T03:22:14.845Z,11.80
2018-12-31T03:24:42.574Z,11.20
2018-12-31T03:27:10.669Z,9.00
2018-12-31T03:29:38.329Z,12.60
2018-12-31T03:32:06.111Z,8.00
2018-12-31T03:34:35.615Z,7.80
2018-12-31T03:37:03.413Z,8.60
2018-12-31T03:39:37.332Z,8.80
2018-12-31T03:42:05.042Z,11.60
2018-12-31T03:44:32.947Z,10.00
2018-12-31T03:47:00.763Z,7.00
2018-12-31T03:49:28.543Z,9.40
2018-12-31T03:51:57.562Z,9.00
2018-12-31T03:54:25.347Z,9.60
2018-12-31T03:56:53.061Z,7.40
2018-12-31T03:59:21.210Z,10.00
2018-12-31T04:01:53.249Z,8.60
2018-12-31T04:04:23.239Z,11.80
2018-12-31T04:06:54.977Z,11.60
2018-12-31T04:09:23.170Z,9.80
2018-12-31T04:11:51.218Z,11.00
2018-12-31T04:14:20.852Z,12.20
2018-12-31T04:16:50.383Z,6.60
2018-12-31T04:19:18.206Z,11.20
2018-12-31T04:21:46.237Z,7.80
2018-12-31T04:24:18.156Z,7.00
2018-12-31T04:26:43.375Z,6.60
2018-12-31T04:29:11.167Z,9.00
2018-12-31T04:31:39.042Z,7.40
2018-12-31T04:34:06.805Z,9.00
2018-12-31T04:36:34.985Z,6.80
2018-12-31T04:39:04.689Z,9.40
2018-12-31T04:41:32.463Z,13.00
2018-12-31T04:44:00.580Z,8.20
2018-12-31T04:46:28.392Z,12.00
2018-12-31T04:48:56.141Z,6.40
2018-12-31T04:51:23.927Z,9.20
2018-12-31T04:53:53.121Z,10.00
2018-12-31T04:56:20.944Z,7.60
2018-12-31T04:58:48.690Z,9.20
2018-12-31T05:01:16.516Z,8.20
2018-12-31T05:03:44.609Z,10.80
2018-12-31T05:06:12.390Z,7.00
2018-12-31T05:08:40.121Z,7.80
2018-12-31T05:11:07.908Z,11.80
2018-12-31T05:13:35.969Z,8.20
2018-12-31T05:16:03.756Z,6.80
2018-12-31T05:18:31.958Z,1.40
2018-12-31T05:20:59.772Z,8.60
2018-12-31T05:23:27.691Z,8.20
2018-12-31T05:25:55.425Z,9.80
2018-12-31T05:28:25.834Z,11.60
2018-12-31T05:30:53.935Z,7.40
2018-12-31T05:33:21.674Z,7.40
2018-12-31T05:35:49.464Z,9.60
2018-12-31T05:38:17.194Z,10.80
2018-12-31T05:40:45.275Z,9.40
2018-12-31T05:43:13.025Z,11.60
2018-12-31T05:45:40.828Z,7.80
2018-12-31T05:48:08.830Z,7.20
2018-12-31T05:50:36.651Z,4.80
2018-12-31T05:53:04.824Z,17.00
2018-12-31T05:55:32.834Z,9.40
2018-12-31T05:58:01.106Z,11.20
2018-12-31T06:00:30.596Z,11.20
2018-12-31T06:02:59.430Z,11.20
2018-12-31T06:05:27.539Z,13.60
2018-12-31T06:07:55.288Z,11.20
2018-12-31T06:10:23.045Z,11.40
2018-12-31T06:12:50.850Z,13.00
2018-12-31T06:15:19.126Z,10.40
2018-12-31T06:17:46.872Z,14.20
2018-12-31T06:20:14.803Z,12.00
2018-12-31T06:22:42.609Z,17.80
2018-12-31T06:25:10.346Z,15.40
2018-12-31T06:27:38.161Z,14.40
2018-12-31T06:30:06.232Z,7.00
2018-12-31T06:32:34.760Z,17.00
2018-12-31T06:35:04.194Z,17.60
2018-12-31T06:37:32.212Z,15.20
2018-12-31T06:39:59.998Z,7.80
2018-12-31T06:42:27.741Z,18.80
2018-12-31T06:44:55.554Z,12.20
2018-12-31T06:47:23.344Z,16.20
2018-12-31T06:49:51.134Z,17.20
2018-12-31T06:52:18.909Z,17.20
2018-12-31T06:54:47.047Z,14.60
2018-12-31T06:57:14.807Z,14.00
2018-12-31T06:59:42.894Z,14.60
2018-12-31T07:02:10.970Z,13.40
2018-12-31T07:04:38.807Z,19.60
2018-12-31T07:07:06.540Z,9.40
2018-12-31T07:09:34.373Z,13.80
2018-12-31T07:12:02.481Z,13.80
2018-12-31T07:14:30.319Z,15.00
2018-12-31T07:16:58.157Z,13.60
2018-12-31T07:19:25.864Z,19.40
2018-12-31T07:21:53.923Z,8.60
2018-12-31T07:24:21.779Z,15.60
2018-12-31T07:26:49.538Z,15.80
2018-12-31T07:29:17.647Z,22.80
2018-12-31T07:31:45.408Z,6.80
2018-12-31T07:34:13.203Z,19.40
2018-12-31T07:36:40.963Z,21.00
2018-12-31T07:39:08.681Z,15.00
2018-12-31T07:41:39.690Z,20.60
2018-12-31T07:44:07.658Z,8.20
2018-12-31T07:46:35.490Z,6.00
2018-12-31T07:49:05.986Z,16.80
2018-12-31T07:51:38.064Z,13.80
2018-12-31T07:54:03.456Z,19.00
2018-12-31T07:56:31.293Z,19.80
2018-12-31T07:59:00.392Z,20.60
2018-12-31T08:01:31.135Z,10.80
2018-12-31T08:03:58.971Z,22.00
2018-12-31T08:06:26.986Z,15.80
2018-12-31T08:08:54.789Z,17.20
2018-12-31T08:11:22.588Z,17.80
2018-12-31T08:13:50.624Z,15.00
2018-12-31T08:16:18.763Z,14.60
2018-12-31T08:18:46.958Z,10.80
2018-12-31T08:21:15.225Z,12.60
2018-12-31T08:23:42.973Z,16.80
2018-12-31T08:26:10.775Z,15.60
2018-12-31T08:28:38.848Z,14.00
2018-12-31T08:31:06.629Z,10.80
2018-12-31T08:33:37.521Z,16.00
2018-12-31T08:36:06.647Z,14.80
2018-12-31T08:38:34.458Z,10.00
2018-12-31T08:41:02.626Z,11.40
2018-12-31T08:43:34.129Z,3.20
2018-12-31T08:46:05.010Z,12.00
2018-12-31T08:48:32.779Z,12.00
2018-12-31T08:51:00.884Z,7.80
2018-12-31T08:53:28.899Z,11.00
2018-12-31T08:55:57.102Z,10.00
2018-12-31T08:58:25.298Z,7.40
2018-12-31T09:00:53.030Z,14.20
2018-12-31T09:03:20.846Z,14.20
2018-12-31T09:05:51.556Z,9.80
2018-12-31T09:08:19.409Z,12.60
2018-12-31T09:10:47.247Z,11.60
2018-12-31T09:13:15.282Z,10.60
2018-12-31T09:15:43.040Z,10.20
2018-12-31T09:18:10.835Z,13.00
2018-12-31T09:20:41.139Z,10.80
2018-12-31T09:23:10.486Z,7.40
2018-12-31T09:25:41.501Z,12.00
2018-12-31T09:28:09.330Z,12.20
2018-12-31T09:30:37.431Z,16.40
2018-12-31T09:33:09.881Z,16.80
2018-12-31T09:35:37.676Z,12.00
2018-12-31T09:38:05.458Z,11.20
2018-12-31T09:40:33.535Z,15.20
2018-12-31T09:43:01.674Z,7.80
2018-12-31T09:45:31.109Z,15.60
2018-12-31T09:47:58.862Z,18.00
2018-12-31T09:50:26.685Z,10.60
2018-12-31T09:52:54.829Z,12.40
2018-12-31T09:55:25.132Z,12.80
2018-12-31T09:57:52.928Z,12.20
2018-12-31T10:00:23.768Z,16.00
2018-12-31T10:02:51.577Z,9.80
2018-12-31T10:05:19.341Z,10.20
2018-12-31T10:07:47.585Z,8.40
2018-12-31T10:10:15.392Z,12.00
2018-12-31T10:12:43.222Z,3.00
2018-12-31T10:15:11.301Z,12.00
2018-12-31T10:17:39.118Z,10.00
2018-12-31T10:20:06.884Z,12.20
2018-12-31T10:22:37.508Z,17.40
2018-12-31T10:25:05.708Z,13.40
2018-12-31T10:27:35.269Z,12.00
2018-12-31T10:30:06.339Z,5.60
2018-12-31T10:32:34.095Z,6.20
2018-12-31T10:35:01.936Z,13.40
2018-12-31T10:37:31.643Z,9.60
2018-12-31T10:39:59.411Z,10.80
2018-12-31T10:42:27.163Z,10.00
2018-12-31T10:44:58.017Z,11.60
2018-12-31T10:47:25.748Z,13.00
2018-12-31T10:49:53.590Z,13.40
2018-12-31T10:52:21.645Z,12.60
2018-12-31T10:54:49.469Z,6.00
2018-12-31T10:57:17.886Z,11.40
2018-12-31T10:59:46.075Z,11.60
2018-12-31T11:02:15.814Z,13.00
2018-12-31T11:04:43.635Z,8.60
2018-12-31T11:07:16.137Z,9.20
2018-12-31T11:09:43.993Z,6.80
2018-12-31T11:12:11.768Z,11.20
2018-12-31T11:14:46.084Z,12.20
2018-12-31T11:17:13.868Z,13.40
2018-12-31T11:19:41.743Z,11.60
2018-12-31T11:22:09.799Z,16.00
2018-12-31T11:24:37.670Z,8.00
2018-12-31T11:27:05.436Z,10.80
2018-12-31T11:29:33.611Z,10.80
2018-12-31T11:32:01.317Z,11.60
2018-12-31T11:34:32.055Z,13.00
2018-12-31T11:37:00.163Z,13.40
2018-12-31T11:39:27.938Z,10.80
2018-12-31T11:41:55.804Z,15.20
2018-12-31T11:44:23.803Z,12.20
2018-12-31T11:46:51.647Z,10.80
2018-12-31T11:49:25.400Z,12.80
2018-12-31T11:51:53.512Z,9.80
2018-12-31T11:54:21.353Z,15.60
2018-12-31T11:56:49.252Z,7.00
2018-12-31T11:59:17.312Z,12.40
2018-12-31T12:01:45.150Z,11.60
2018-12-31T12:04:13.323Z,10.00
2018-12-31T12:06:41.444Z,10.40
2018-12-31T12:09:15.251Z,10.00
2018-12-31T12:11:44.205Z,10.80
2018-12-31T12:14:13.322Z,10.60
2018-12-31T12:16:41.454Z,9.60
2018-12-31T12:19:09.341Z,18.40
2018-12-31T12:21:37.261Z,7.80
2018-12-31T12:24:05.849Z,4.80
2018-12-31T12:26:34.708Z,10.80
2018-12-31T12:29:04.161Z,15.40
2018-12-31T12:31:39.925Z,10.40
2018-12-31T12:34:11.085Z,11.60
2018-12-31T12:36:38.860Z,13.20
2018-12-31T12:39:08.918Z,6.40
2018-12-31T12:41:37.055Z,11.20
2018-12-31T12:44:06.827Z,13.00
2018-12-31T12:46:40.121Z,12.20
2018-12-31T12:49:09.082Z,15.40
2018-12-31T12:51:36.901Z,12.20
2018-12-31T12:54:06.111Z,14.60
2018-12-31T12:56:34.335Z,12.80
2018-12-31T12:59:05.405Z,12.60
2018-12-31T13:01:52.735Z,16.00
2018-12-31T13:04:26.176Z,18.60
2018-12-31T13:06:59.036Z,17.60
2018-12-31T13:09:27.063Z,13.80
2018-12-31T13:12:00.335Z,13.40
2018-12-31T13:14:30.426Z,11.60
2018-12-31T13:16:58.260Z,15.20
2018-12-31T13:19:31.380Z,13.20
2018-12-31T13:22:04.341Z,13.00
2018-12-31T13:24:35.819Z,18.40
2018-12-31T13:27:09.235Z,16.40
2018-12-31T13:29:37.318Z,11.60
2018-12-31T13:32:14.058Z,19.00
2018-12-31T13:34:42.541Z,11.00
2018-12-31T13:37:10.351Z,17.80
2018-12-31T13:39:38.236Z,14.60
2018-12-31T13:42:05.994Z,16.00
2018-12-31T13:44:33.741Z,16.60
2018-12-31T13:47:04.615Z,16.00
2018-12-31T13:49:33.960Z,19.00
2018-12-31T13:52:02.069Z,12.40
2018-12-31T13:54:31.284Z,16.80
2018-12-31T13:57:12.174Z,13.00
2018-12-31T13:59:40.302Z,9.40
2018-12-31T14:02:10.750Z,16.80
2018-12-31T14:04:41.176Z,15.00
2018-12-31T14:07:09.285Z,16.00
2018-12-31T14:09:37.311Z,20.60
2018-12-31T14:12:05.157Z,10.20
2018-12-31T14:14:47.061Z,19.60
2018-12-31T14:17:14.890Z,15.80
2018-12-31T14:19:43.465Z,14.60
2018-12-31T14:22:11.229Z,19.00
2018-12-31T14:24:42.109Z,18.00
2018-12-31T14:27:10.300Z,19.00
2018-12-31T14:29:38.133Z,18.40
2018-12-31T14:32:05.962Z,22.80
2018-12-31T14:34:33.981Z,22.60
2018-12-31T14:37:06.198Z,20.60
2018-12-31T14:39:36.387Z,17.00
2018-12-31T14:42:05.761Z,19.00
2018-12-31T14:44:33.549Z,18.20
2018-12-31T14:47:01.773Z,21.40
2018-12-31T14:49:30.465Z,21.60
2018-12-31T14:51:58.214Z,25.80
2018-12-31T14:54:26.384Z,22.40
2018-12-31T14:56:54.216Z,21.40
2018-12-31T14:59:22.442Z,17.40
2018-12-31T15:01:50.461Z,27.80
2018-12-31T15:04:18.317Z,19.40
2018-12-31T15:06:46.067Z,22.00
2018-12-31T15:09:16.798Z,28.00
2018-12-31T15:11:51.054Z,21.80
2018-12-31T15:14:18.825Z,19.80
2018-12-31T15:16:46.935Z,18.00
2018-12-31T15:19:15.115Z,18.60
2018-12-31T15:21:44.613Z,22.40
2018-12-31T15:24:14.187Z,23.20
2018-12-31T15:26:42.033Z,21.00
2018-12-31T15:29:11.837Z,21.60
2018-12-31T15:31:42.398Z,18.80
2018-12-31T15:34:10.260Z,20.60
2018-12-31T15:36:38.121Z,18.00
2018-12-31T15:39:06.294Z,22.40
2018-12-31T15:41:38.127Z,26.20
2018-12-31T15:44:05.930Z,24.80
2018-12-31T15:46:34.707Z,23.40
2018-12-31T15:49:02.474Z,23.60
2018-12-31T15:51:34.845Z,35.20
2018-12-31T15:54:05.207Z,23.20
2018-12-31T15:56:34.432Z,33.60
2018-12-31T15:59:02.143Z,25.00
2018-12-31T16:01:34.531Z,20.60
2018-12-31T16:04:11.065Z,22.40
2018-12-31T16:06:38.917Z,15.40
2018-12-31T16:09:07.531Z,25.80
2018-12-31T16:11:37.854Z,26.80
2018-12-31T16:14:05.975Z,20.00
2018-12-31T16:16:33.828Z,29.60
2018-12-31T16:19:06.127Z,20.20
2018-12-31T16:21:34.469Z,25.80
2018-12-31T16:24:05.616Z,18.40
2018-12-31T16:26:35.776Z,25.20
2018-12-31T16:29:07.186Z,26.80
2018-12-31T16:31:34.962Z,18.40
2018-12-31T16:34:02.797Z,27.20
2018-12-31T16:36:33.388Z,31.60
2018-12-31T16:39:05.360Z,20.40
2018-12-31T16:41:35.158Z,27.80
2018-12-31T16:44:03.114Z,23.60
2018-12-31T16:46:31.313Z,31.40
2018-12-31T16:49:02.281Z,20.60
2018-12-31T16:51:31.137Z,18.80
2018-12-31T16:53:58.880Z,30.80
2018-12-31T16:56:26.966Z,30.60
2018-12-31T16:58:58.374Z,16.40
2018-12-31T17:01:26.152Z,31.20
2018-12-31T17:03:54.244Z,30.60
2018-12-31T17:06:23.340Z,28.60
2018-12-31T17:08:51.740Z,29.20
2018-12-31T17:11:23.967Z,29.20
2018-12-31T17:13:52.077Z,32.80
2018-12-31T17:16:19.918Z,31.20
2018-12-31T17:18:49.317Z,26.60
2018-12-31T17:21:17.181Z,23.20
2018-12-31T17:23:47.743Z,30.60
2018-12-31T17:26:20.179Z,22.40
2018-12-31T17:28:48.624Z,27.40
2018-12-31T17:31:16.415Z,23.20
2018-12-31T17:33:44.472Z,24.20
2018-12-31T17:36:12.277Z,26.20
2018-12-31T17:38:40.233Z,27.00
2018-12-31T17:41:08.319Z,24.80
2018-12-31T17:43:36.166Z,26.40
2018-12-31T17:46:08.532Z,29.60
2018-12-31T17:48:36.520Z,24.80
2018-12-31T17:51:06.201Z,30.40
2018-12-31T17:53:34.019Z,26.60
2018-12-31T17:56:04.624Z,29.20
2018-12-31T17:58:32.478Z,32.20
2018-12-31T18:01:00.691Z,25.60
2018-12-31T18:03:28.736Z,32.40
2018-12-31T18:06:00.654Z,29.40
2018-12-31T18:08:47.140Z,29.20
2018-12-31T18:11:15.290Z,33.60
2018-12-31T18:13:43.456Z,29.60
2018-12-31T18:16:11.250Z,23.80
2018-12-31T18:18:39.326Z,24.20
2018-12-31T18:21:12.959Z,27.40
2018-12-31T18:23:40.810Z,20.40
2018-12-31T18:26:11.611Z,27.80
2018-12-31T18:28:43.530Z,27.20
2018-12-31T18:31:14.196Z,30.20
2018-12-31T18:33:42.179Z,27.80
2018-12-31T18:36:09.937Z,23.60
2018-12-31T18:38:37.807Z,26.60
2018-12-31T18:41:09.757Z,23.80
2018-12-31T18:43:37.661Z,21.80
2018-12-31T18:46:05.466Z,25.00
2018-12-31T18:48:33.905Z,28.80
2018-12-31T18:51:04.338Z,30.80
2018-12-31T18:53:32.130Z,26.20
2018-12-31T18:56:00.257Z,21.40
2018-12-31T18:58:28.022Z,23.20
2018-12-31T19:00:55.781Z,14.20
2018-12-31T19:03:27.336Z,17.00
2018-12-31T19:05:58.003Z,32.20
2018-12-31T19:08:30.468Z,21.40
2018-12-31T19:11:04.330Z,30.20
2018-12-31T19:13:32.175Z,19.00
2018-12-31T19:16:05.921Z,20.20
2018-12-31T19:18:33.955Z,23.60
2018-12-31T19:21:01.812Z,23.80
2018-12-31T19:23:29.625Z,24.40
2018-12-31T19:26:00.704Z,30.40
2018-12-31T19:28:30.373Z,25.00
2018-12-31T19:30:58.514Z,13.40
2018-12-31T19:33:29.536Z,26.20
2018-12-31T19:35:58.905Z,12.60
2018-12-31T19:38:29.199Z,19.80
2018-12-31T19:40:57.309Z,18.60
2018-12-31T19:43:25.052Z,26.00
2018-12-31T19:45:54.616Z,47.60
2018-12-31T19:48:22.629Z,21.20
2018-12-31T19:50:50.449Z,44.20
2018-12-31T19:53:23.058Z,33.40
2018-12-31T19:55:51.132Z,36.80
2018-12-31T19:58:20.074Z,68.00
2018-12-31T20:00:50.150Z,52.00
2018-12-31T20:03:24.078Z,32.20
2018-12-31T20:06:05.554Z,45.60
2018-12-31T20:08:36.324Z,44.40
2018-12-31T20:11:04.129Z,21.60
2018-12-31T20:13:34.594Z,26.60
2018-12-31T20:16:02.703Z,33.40
2018-12-31T20:18:35.016Z,22.80
2018-12-31T20:21:02.818Z,31.20
2018-12-31T20:23:30.917Z,21.20
2018-12-31T20:26:04.603Z,13.80
2018-12-31T20:28:32.420Z,21.80
2018-12-31T20:31:00.436Z,19.20
2018-12-31T20:33:28.250Z,18.60
2018-12-31T20:35:57.892Z,21.40
2018-12-31T20:38:25.911Z,21.00
2018-12-31T20:40:54.148Z,23.60
2018-12-31T20:43:30.942Z,23.60
2018-12-31T20:46:01.757Z,16.80
2018-12-31T20:48:28.897Z,24.40
2018-12-31T20:50:59.070Z,21.20
2018-12-31T20:53:27.703Z,17.20
2018-12-31T20:55:56.789Z,16.60
2018-12-31T20:58:27.767Z,18.00
2018-12-31T21:00:59.951Z,16.80
2018-12-31T21:03:29.720Z,16.80
2018-12-31T21:06:02.196Z,20.20
2018-12-31T21:08:32.959Z,28.00
2018-12-31T21:11:02.450Z,21.20
2018-12-31T21:13:30.577Z,22.00
2018-12-31T21:15:58.380Z,15.20
2018-12-31T21:18:26.506Z,18.20
2018-12-31T21:20:54.517Z,18.40
2018-12-31T21:23:22.370Z,19.20
2018-12-31T21:25:50.124Z,16.40
2018-12-31T21:28:27.430Z,19.00
2018-12-31T21:31:01.217Z,18.60
2018-12-31T21:33:31.980Z,16.00
2018-12-31T21:36:01.444Z,16.40
2018-12-31T21:38:29.304Z,18.20
2018-12-31T21:40:57.342Z,20.80
2018-12-31T21:43:25.093Z,19.20
2018-12-31T21:45:52.936Z,16.80
2018-12-31T21:48:23.910Z,15.00
2018-12-31T21:50:53.983Z,17.60
2018-12-31T21:53:21.825Z,12.80
2018-12-31T21:55:49.925Z,17.20
2018-12-31T21:58:21.202Z,16.40
2018-12-31T22:00:52.364Z,15.80
2018-12-31T22:03:21.720Z,20.40
2018-12-31T22:05:50.603Z,22.80
2018-12-31T22:08:19.077Z,17.20
2018-12-31T22:10:47.297Z,17.60
2018-12-31T22:13:16.783Z,18.00
2018-12-31T22:15:47.173Z,16.40
2018-12-31T22:18:17.165Z,13.00
2018-12-31T22:20:45.279Z,15.60
2018-12-31T22:23:24.914Z,16.00
2018-12-31T22:25:55.772Z,15.40
2018-12-31T22:28:24.236Z,15.00
2018-12-31T22:30:52.533Z,15.00
2018-12-31T22:33:23.361Z,16.40
2018-12-31T22:35:53.365Z,21.20
2018-12-31T22:38:21.156Z,13.00
2018-12-31T22:40:48.921Z,15.20
2018-12-31T22:43:19.521Z,15.00
2018-12-31T22:45:52.368Z,15.00
2018-12-31T22:48:20.222Z,15.20
2018-12-31T22:50:48.251Z,17.60
2018-12-31T22:53:18.520Z,13.80
2018-12-31T22:55:51.454Z,19.60
2018-12-31T22:58:19.488Z,18.00
2018-12-31T23:00:47.265Z,18.20
2018-12-31T23:03:20.063Z,13.40
2018-12-31T23:05:48.071Z,104.80
2018-12-31T23:08:21.881Z,46.60
2018-12-31T23:10:49.714Z,129.60
2018-12-31T23:13:17.768Z,154.00
2018-12-31T23:15:47.338Z,67.20
2018-12-31T23:18:19.115Z,45.40
2018-12-31T23:20:55.334Z,60.60
2018-12-31T23:23:25.380Z,76.00
2018-12-31T23:25:54.750Z,118.20
2018-12-31T23:28:30.363Z,140.80
2018-12-31T23:31:08.315Z,61.80
2018-12-31T23:33:42.187Z,74.40
2018-12-31T23:36:10.046Z,54.20
2018-12-31T23:38:40.553Z,60.00
2018-12-31T23:41:09.706Z,57.60
2018-12-31T23:43:40.080Z,56.20
2018-12-31T23:46:09.503Z,49.40
2018-12-31T23:48:47.336Z,31.80
2018-12-31T23:51:16.137Z,48.40
2018-12-31T23:53:51.246Z,46.60
2018-12-31T23:56:24.355Z,49.40
2018-12-31T23:58:54.249Z,46.60
